Terminal Aerodrome Forecast
Issued by NWS

Home | Current Version | Previous Version | Text Only | Print | Product List | Glossary On
Versions: 1 2 3 4 5 6 7 8 9 10 11 12 13 14 15 16 17 18 19 20 21 22 23 24 25 26 27 28 29 30 31 32 33 34 35 36 37 38 39 40 41 42 43 44 45 46 47 48 49 50
000
FTUS42 KMFL 300542
TAFMIA
TAF
KMIA 300542Z 3006/3106 10010KT P6SM VCSH SCT025 SCT060 BKN250
      TEMPO 3006/3008 TSRA BKN035CB
     FM300800 11015KT P6SM SHRA VCTS SCT020CB BKN050
     FM301400 14015KT P6SM SHRA VCTS SCT025CB BKN050
     FM301700 15015KT P6SM SHRA VCTS SCT025CB BKN050 PROB30
      3017/3022 VRB15G25KT TSRA BKN025CB
     FM302300 14010KT P6SM SHRA VCTS SCT025CB PROB30 3023/3105
      VRB10G20KT TSRA BKN025CB=

USA.gov is the U.S. government's official web portal to all federal, state and local government web resources and services.